createdAt,value
2022-12-19T00:00:27.815Z,0.00
2022-12-19T00:01:27.990Z,0.00
2022-12-19T00:02:27.923Z,0.00
2022-12-19T00:03:27.919Z,0.00
2022-12-19T00:04:27.775Z,0.00
2022-12-19T00:05:27.754Z,0.00
2022-12-19T00:06:27.757Z,0.00
2022-12-19T00:07:27.736Z,0.00
2022-12-19T00:08:27.735Z,0.00
2022-12-19T00:09:27.720Z,0.00
2022-12-19T00:10:27.721Z,0.00
2022-12-19T00:11:28.326Z,0.00
2022-12-19T00:12:27.698Z,0.00
2022-12-19T00:13:27.671Z,0.00
2022-12-19T00:14:27.672Z,0.00
2022-12-19T00:15:27.656Z,0.00
2022-12-19T00:16:27.704Z,0.00
2022-12-19T00:17:27.642Z,0.00
2022-12-19T00:18:27.629Z,0.00
2022-12-19T00:19:27.622Z,0.00
2022-12-19T00:20:27.611Z,0.00
2022-12-19T00:21:27.601Z,0.00
2022-12-19T00:22:27.596Z,0.00
2022-12-19T00:23:27.579Z,0.00
2022-12-19T00:24:28.019Z,0.00
2022-12-19T00:25:27.557Z,0.00
2022-12-19T00:26:27.938Z,0.00
2022-12-19T00:27:27.537Z,0.00
2022-12-19T00:28:27.529Z,0.00
2022-12-19T00:29:28.138Z,0.00
2022-12-19T00:30:27.514Z,0.00
2022-12-19T00:31:27.582Z,0.00
2022-12-19T00:32:27.496Z,0.00
2022-12-19T00:33:27.476Z,0.00
2022-12-19T00:34:28.358Z,0.00
2022-12-19T00:35:27.454Z,0.00
2022-12-19T00:36:27.840Z,0.00
2022-12-19T00:37:27.433Z,0.00
2022-12-19T00:38:27.429Z,0.00
2022-12-19T00:39:27.905Z,0.00
2022-12-19T00:40:27.424Z,0.00
2022-12-19T00:41:27.399Z,0.00
2022-12-19T00:42:27.396Z,0.00
2022-12-19T00:43:27.380Z,0.00
2022-12-19T00:44:27.371Z,0.00
2022-12-19T00:45:27.422Z,0.00
2022-12-19T00:46:27.358Z,0.00
2022-12-19T00:47:27.337Z,0.00
2022-12-19T00:48:27.337Z,0.00
2022-12-19T00:49:27.319Z,0.00
2022-12-19T00:50:27.313Z,0.00
2022-12-19T00:51:27.297Z,0.00
2022-12-19T00:52:27.298Z,0.00
2022-12-19T00:53:27.283Z,0.00
2022-12-19T00:54:27.298Z,0.00
2022-12-19T00:55:27.804Z,0.00
2022-12-19T00:56:27.259Z,0.00
2022-12-19T00:57:27.241Z,0.00
2022-12-19T00:58:27.242Z,0.00
2022-12-19T00:59:27.236Z,0.00
2022-12-19T01:00:27.543Z,0.00
2022-12-19T01:01:27.421Z,0.00
2022-12-19T01:02:27.350Z,0.00
2022-12-19T01:03:27.177Z,0.00
2022-12-19T01:04:29.087Z,0.00
2022-12-19T01:05:27.160Z,0.00
2022-12-19T01:06:27.155Z,0.00
2022-12-19T01:07:27.138Z,0.00
2022-12-19T01:08:27.133Z,0.00
2022-12-19T01:09:27.123Z,0.00
2022-12-19T01:10:27.115Z,0.00
2022-12-19T01:11:27.098Z,0.00
2022-12-19T01:12:27.431Z,0.00
2022-12-19T01:13:27.083Z,0.00
2022-12-19T01:14:27.075Z,0.00
2022-12-19T01:15:27.061Z,0.00
2022-12-19T01:16:27.103Z,0.00
2022-12-19T01:17:27.434Z,0.00
2022-12-19T01:18:27.041Z,0.00
2022-12-19T01:19:27.024Z,0.00
2022-12-19T01:20:30.002Z,0.00
2022-12-19T01:21:27.003Z,0.00
2022-12-19T01:22:27.001Z,0.00
2022-12-19T01:23:27.387Z,0.00
2022-12-19T01:24:26.981Z,0.00
2022-12-19T01:25:26.964Z,0.00
2022-12-19T01:26:26.967Z,0.00
2022-12-19T01:27:26.940Z,0.00
2022-12-19T01:28:26.938Z,0.00
2022-12-19T01:29:27.144Z,0.00
2022-12-19T01:30:27.736Z,0.00
2022-12-19T01:31:26.928Z,0.00
2022-12-19T01:32:26.902Z,0.00
2022-12-19T01:33:26.880Z,0.00
2022-12-19T01:34:26.881Z,0.00
2022-12-19T01:35:26.869Z,0.00
2022-12-19T01:36:26.857Z,0.00
2022-12-19T01:37:26.846Z,0.00
2022-12-19T01:38:26.836Z,0.00
2022-12-19T01:39:26.904Z,0.00
2022-12-19T01:40:26.818Z,0.00
2022-12-19T01:41:27.372Z,0.00
2022-12-19T01:42:26.800Z,0.00
2022-12-19T01:43:26.792Z,0.00
2022-12-19T01:44:26.777Z,0.00
2022-12-19T01:45:33.368Z,0.00
2022-12-19T01:46:27.194Z,0.00
2022-12-19T01:47:26.745Z,0.00
2022-12-19T01:48:26.740Z,0.00
2022-12-19T01:49:26.726Z,0.00
2022-12-19T01:50:26.717Z,0.00
2022-12-19T01:51:26.708Z,0.00
2022-12-19T01:52:26.718Z,0.00
2022-12-19T01:53:26.691Z,0.00
2022-12-19T01:54:26.684Z,0.00
2022-12-19T01:55:26.671Z,0.00
2022-12-19T01:56:26.633Z,0.00
2022-12-19T01:57:26.632Z,0.00
2022-12-19T01:58:26.619Z,0.00
2022-12-19T01:59:27.155Z,0.00
2022-12-19T02:00:26.593Z,0.00
2022-12-19T02:01:26.636Z,0.00
2022-12-19T02:02:26.679Z,0.00
2022-12-19T02:03:26.604Z,0.00
2022-12-19T02:04:27.088Z,0.00
2022-12-19T02:05:26.554Z,0.00
2022-12-19T02:06:26.547Z,0.00
2022-12-19T02:07:26.898Z,0.00
2022-12-19T02:08:26.516Z,0.00
2022-12-19T02:09:26.503Z,0.00
2022-12-19T02:10:26.492Z,0.00
2022-12-19T02:11:26.478Z,0.00
2022-12-19T02:12:26.858Z,0.00
2022-12-19T02:13:26.462Z,0.00
2022-12-19T02:14:27.040Z,0.00
2022-12-19T02:15:26.443Z,0.00
2022-12-19T02:16:28.990Z,0.00
2022-12-19T02:17:26.426Z,0.00
2022-12-19T02:18:26.427Z,0.00
2022-12-19T02:19:26.416Z,0.00
2022-12-19T02:20:26.397Z,0.00
2022-12-19T02:21:26.403Z,0.00
2022-12-19T02:22:26.388Z,0.00
2022-12-19T02:23:26.387Z,0.00
2022-12-19T02:24:26.361Z,0.00
2022-12-19T02:25:26.359Z,0.00
2022-12-19T02:26:26.341Z,0.00
2022-12-19T02:27:26.340Z,0.00
2022-12-19T02:28:26.332Z,0.00
2022-12-19T02:29:26.314Z,0.00
2022-12-19T02:30:26.306Z,0.00
2022-12-19T02:31:26.340Z,0.00
2022-12-19T02:32:26.291Z,0.00
2022-12-19T02:33:26.296Z,0.00
2022-12-19T02:34:26.277Z,0.00
2022-12-19T02:35:27.049Z,0.00
2022-12-19T02:36:26.250Z,0.00
2022-12-19T02:37:26.257Z,0.00
2022-12-19T02:38:26.231Z,0.00
2022-12-19T02:39:26.248Z,0.00
2022-12-19T02:40:26.210Z,0.00
2022-12-19T02:41:26.589Z,0.00
2022-12-19T02:42:26.540Z,0.00
2022-12-19T02:43:26.202Z,0.00
2022-12-19T02:44:26.169Z,0.00
2022-12-19T02:45:28.450Z,0.00
2022-12-19T02:46:26.531Z,0.00
2022-12-19T02:47:26.150Z,0.00
2022-12-19T02:48:26.137Z,0.00
2022-12-19T02:49:31.108Z,0.00
2022-12-19T02:50:26.131Z,0.00
2022-12-19T02:51:26.526Z,0.00
2022-12-19T02:52:26.107Z,0.00
2022-12-19T02:53:26.105Z,0.00
2022-12-19T02:54:26.085Z,0.00
2022-12-19T02:55:26.082Z,0.00
2022-12-19T02:56:26.065Z,0.00
2022-12-19T02:57:28.167Z,0.00
2022-12-19T02:58:26.894Z,0.00
2022-12-19T02:59:26.038Z,0.00
2022-12-19T03:00:26.023Z,0.00
2022-12-19T03:01:26.440Z,0.00
2022-12-19T03:02:26.063Z,0.00
2022-12-19T03:03:26.114Z,0.00
2022-12-19T03:04:25.993Z,0.00
2022-12-19T03:05:25.974Z,0.00
2022-12-19T03:06:25.965Z,0.00
2022-12-19T03:07:25.977Z,0.00
2022-12-19T03:08:25.947Z,0.00
2022-12-19T03:09:25.949Z,0.00
2022-12-19T03:10:25.954Z,0.00
2022-12-19T03:11:25.923Z,0.00
2022-12-19T03:12:25.910Z,0.00
2022-12-19T03:13:26.246Z,0.00
2022-12-19T03:14:25.895Z,0.00
2022-12-19T03:15:25.885Z,0.00
2022-12-19T03:16:25.894Z,0.00
2022-12-19T03:17:25.865Z,0.00
2022-12-19T03:18:25.852Z,0.00
2022-12-19T03:19:25.892Z,0.00
2022-12-19T03:20:25.893Z,0.00
2022-12-19T03:21:25.836Z,0.00
2022-12-19T03:22:26.070Z,0.00
2022-12-19T03:23:25.813Z,0.00
2022-12-19T03:24:25.798Z,0.00
2022-12-19T03:25:25.798Z,0.00
2022-12-19T03:26:26.090Z,0.00
2022-12-19T03:27:25.777Z,0.00
2022-12-19T03:28:25.772Z,0.00
2022-12-19T03:29:25.763Z,0.00
2022-12-19T03:30:25.756Z,0.00
2022-12-19T03:31:26.147Z,0.00
2022-12-19T03:32:25.722Z,0.00
2022-12-19T03:33:25.711Z,0.00
2022-12-19T03:34:25.701Z,0.00
2022-12-19T03:35:25.694Z,0.00
2022-12-19T03:36:25.687Z,0.00
2022-12-19T03:37:25.694Z,0.00
2022-12-19T03:38:25.665Z,0.00
2022-12-19T03:39:25.651Z,0.00
2022-12-19T03:40:25.650Z,0.00
2022-12-19T03:41:25.633Z,0.00
2022-12-19T03:42:25.625Z,0.00
2022-12-19T03:43:25.621Z,0.00
2022-12-19T03:44:25.606Z,0.00
2022-12-19T03:45:25.979Z,0.00
2022-12-19T03:46:25.617Z,0.00
2022-12-19T03:47:25.588Z,0.00
2022-12-19T03:48:25.593Z,0.00
2022-12-19T03:49:25.570Z,0.00
2022-12-19T03:50:25.558Z,0.00
2022-12-19T03:51:25.546Z,0.00
2022-12-19T03:52:25.930Z,0.00
2022-12-19T03:53:25.527Z,0.00
2022-12-19T03:54:25.521Z,0.00
2022-12-19T03:55:26.073Z,0.00
2022-12-19T03:56:25.491Z,0.00
2022-12-19T03:57:25.486Z,0.00
2022-12-19T03:58:25.477Z,0.00
2022-12-19T03:59:25.473Z,0.00
2022-12-19T04:00:26.299Z,0.00
2022-12-19T04:01:25.552Z,0.00
2022-12-19T04:02:25.564Z,0.00
2022-12-19T04:03:25.455Z,0.00
2022-12-19T04:04:25.413Z,0.00
2022-12-19T04:05:25.410Z,0.00
2022-12-19T04:06:25.392Z,0.00
2022-12-19T04:07:25.392Z,0.00
2022-12-19T04:08:25.377Z,0.00
2022-12-19T04:09:25.378Z,0.00
2022-12-19T04:10:25.355Z,0.00
2022-12-19T04:11:25.351Z,0.00
2022-12-19T04:12:25.800Z,0.00
2022-12-19T04:13:25.335Z,0.00
2022-12-19T04:14:25.322Z,0.00
2022-12-19T04:15:25.305Z,0.00
2022-12-19T04:16:25.293Z,0.00
2022-12-19T04:17:25.754Z,0.00
2022-12-19T04:18:25.283Z,0.00
2022-12-19T04:19:25.273Z,0.00
2022-12-19T04:20:25.257Z,0.00
2022-12-19T04:21:25.263Z,0.00
2022-12-19T04:22:25.505Z,0.00
2022-12-19T04:23:25.238Z,0.00
2022-12-19T04:24:25.225Z,0.00
2022-12-19T04:25:29.361Z,0.00
2022-12-19T04:26:25.206Z,0.00
2022-12-19T04:27:25.191Z,0.00
2022-12-19T04:28:25.183Z,0.00
2022-12-19T04:29:25.560Z,0.00
2022-12-19T04:30:25.159Z,0.00
2022-12-19T04:31:25.220Z,0.00
2022-12-19T04:32:25.621Z,0.00
2022-12-19T04:33:25.139Z,0.00
2022-12-19T04:34:25.128Z,0.00
2022-12-19T04:35:25.126Z,0.00
2022-12-19T04:36:25.097Z,0.00
2022-12-19T04:37:25.674Z,0.00
2022-12-19T04:38:25.078Z,0.00
2022-12-19T04:39:25.086Z,0.00
2022-12-19T04:40:25.061Z,0.00
2022-12-19T04:41:25.064Z,0.00
2022-12-19T04:42:25.035Z,0.00
2022-12-19T04:43:25.050Z,0.00
2022-12-19T04:44:25.031Z,0.00
2022-12-19T04:45:25.399Z,0.00
2022-12-19T04:46:25.018Z,0.00
2022-12-19T04:47:24.992Z,0.00
2022-12-19T04:48:24.972Z,0.00
2022-12-19T04:49:24.977Z,0.00
2022-12-19T04:50:25.880Z,0.00
2022-12-19T04:51:25.342Z,0.00
2022-12-19T04:52:25.473Z,0.00
2022-12-19T04:53:24.944Z,0.00
2022-12-19T04:54:24.923Z,0.00
2022-12-19T04:55:24.910Z,0.00
2022-12-19T04:56:24.897Z,0.00
2022-12-19T04:57:24.896Z,0.00
2022-12-19T04:58:24.879Z,0.00
2022-12-19T04:59:24.879Z,0.00
2022-12-19T05:00:24.876Z,0.00
2022-12-19T05:01:25.376Z,0.00
2022-12-19T05:02:25.014Z,0.00
2022-12-19T05:03:25.202Z,0.00
2022-12-19T05:04:24.813Z,0.00
2022-12-19T05:05:24.821Z,0.00
2022-12-19T05:06:24.802Z,0.00
2022-12-19T05:07:24.805Z,0.00
2022-12-19T05:08:24.779Z,0.00
2022-12-19T05:09:24.782Z,0.00
2022-12-19T05:10:24.753Z,0.00
2022-12-19T05:11:24.764Z,0.00
2022-12-19T05:12:24.759Z,0.00
2022-12-19T05:13:24.742Z,0.00
2022-12-19T05:14:24.714Z,0.00
2022-12-19T05:15:24.767Z,0.00
2022-12-19T05:16:24.720Z,0.00
2022-12-19T05:17:24.713Z,0.00
2022-12-19T05:18:25.168Z,0.00
2022-12-19T05:19:24.667Z,0.00
2022-12-19T05:20:24.661Z,0.00
2022-12-19T05:21:25.011Z,0.00
2022-12-19T05:22:25.032Z,0.00
2022-12-19T05:23:24.636Z,0.00
2022-12-19T05:24:24.619Z,0.00
2022-12-19T05:25:24.614Z,0.00
2022-12-19T05:26:24.608Z,0.00
2022-12-19T05:27:24.607Z,0.00
2022-12-19T05:28:24.578Z,0.00
2022-12-19T05:29:24.584Z,0.00
2022-12-19T05:30:24.561Z,0.00
2022-12-19T05:31:24.578Z,0.00
2022-12-19T05:32:24.533Z,0.00
2022-12-19T05:33:24.529Z,0.00
2022-12-19T05:34:24.511Z,0.00
2022-12-19T05:35:24.519Z,0.00
2022-12-19T05:36:30.697Z,0.00
2022-12-19T05:37:24.516Z,0.00
2022-12-19T05:38:24.482Z,0.00
2022-12-19T05:39:25.039Z,0.00
2022-12-19T05:40:24.453Z,0.00
2022-12-19T05:41:24.450Z,0.00
2022-12-19T05:42:24.448Z,0.00
2022-12-19T05:43:24.424Z,0.00
2022-12-19T05:44:24.414Z,0.00
2022-12-19T05:45:24.416Z,0.00
2022-12-19T05:46:24.407Z,0.00
2022-12-19T05:47:24.393Z,0.00
2022-12-19T05:48:24.380Z,0.00
2022-12-19T05:49:24.370Z,0.00
2022-12-19T05:50:24.728Z,0.00
2022-12-19T05:51:24.352Z,0.00
2022-12-19T05:52:24.354Z,0.00
2022-12-19T05:53:26.071Z,0.00
2022-12-19T05:54:24.312Z,0.00
2022-12-19T05:55:24.308Z,0.00
2022-12-19T05:56:24.313Z,0.00
2022-12-19T05:57:24.343Z,0.00
2022-12-19T05:58:24.277Z,0.00
2022-12-19T05:59:24.263Z,0.00
2022-12-19T06:00:24.255Z,0.00
2022-12-19T06:01:24.325Z,0.00
2022-12-19T06:02:24.460Z,0.00
2022-12-19T06:03:24.313Z,0.00
2022-12-19T06:04:24.206Z,0.00
2022-12-19T06:05:24.205Z,0.00
2022-12-19T06:06:24.208Z,0.00
2022-12-19T06:07:24.186Z,0.00
2022-12-19T06:08:24.168Z,0.00
2022-12-19T06:09:24.166Z,0.00
2022-12-19T06:10:24.819Z,0.00
2022-12-19T06:11:24.160Z,0.00
2022-12-19T06:12:24.133Z,0.00
2022-12-19T06:13:25.199Z,0.00
2022-12-19T06:14:24.113Z,0.00
2022-12-19T06:15:24.104Z,0.00
2022-12-19T06:16:24.234Z,0.00
2022-12-19T06:17:24.091Z,0.00
2022-12-19T06:18:24.188Z,0.00
2022-12-19T06:19:24.188Z,0.00
2022-12-19T06:20:24.159Z,0.00
2022-12-19T06:21:24.128Z,0.00
2022-12-19T06:22:24.159Z,0.00
2022-12-19T06:23:24.100Z,0.00
2022-12-19T06:24:24.152Z,0.00
2022-12-19T06:25:24.044Z,0.00
2022-12-19T06:26:24.020Z,0.00
2022-12-19T06:27:24.128Z,0.00
2022-12-19T06:28:24.015Z,0.00
2022-12-19T06:29:23.989Z,0.00
2022-12-19T06:30:23.940Z,0.00
2022-12-19T06:31:23.995Z,0.00
2022-12-19T06:32:24.325Z,0.00
2022-12-19T06:33:23.918Z,0.00
2022-12-19T06:34:55.000Z,0.00
2022-12-19T06:35:23.900Z,0.00
2022-12-19T06:36:23.917Z,0.00
2022-12-19T06:37:23.876Z,0.00
2022-12-19T06:38:24.203Z,0.00
2022-12-19T06:39:23.850Z,0.00
2022-12-19T06:40:23.849Z,0.00
2022-12-19T06:41:23.828Z,0.00
2022-12-19T06:42:24.413Z,0.00
2022-12-19T06:43:23.808Z,0.00
2022-12-19T06:44:23.838Z,0.00
2022-12-19T06:45:23.832Z,0.00
2022-12-19T06:46:23.781Z,0.00
2022-12-19T06:47:23.771Z,0.00
2022-12-19T06:48:23.773Z,0.00
2022-12-19T06:49:23.774Z,0.00
2022-12-19T06:50:23.740Z,0.00
2022-12-19T06:51:23.739Z,0.00
2022-12-19T06:52:23.723Z,0.00
2022-12-19T06:53:23.715Z,0.00
2022-12-19T06:54:23.703Z,0.00
2022-12-19T06:55:23.688Z,0.00
2022-12-19T06:56:23.692Z,0.00
2022-12-19T06:57:23.674Z,0.00
2022-12-19T06:58:24.483Z,1.00
2022-12-19T06:59:23.663Z,0.00
2022-12-19T07:00:23.639Z,0.00
2022-12-19T07:01:23.717Z,1.00
2022-12-19T07:02:24.076Z,1.00
2022-12-19T07:03:23.551Z,1.00
2022-12-19T07:04:24.093Z,1.00
2022-12-19T07:05:23.534Z,1.00
2022-12-19T07:06:23.524Z,2.00
2022-12-19T07:07:23.530Z,2.00
2022-12-19T07:08:23.505Z,2.00
2022-12-19T07:09:23.536Z,2.00
2022-12-19T07:10:23.521Z,3.00
2022-12-19T07:11:23.465Z,3.00
2022-12-19T07:12:23.471Z,3.00
2022-12-19T07:13:23.446Z,3.00
2022-12-19T07:14:23.440Z,3.00
2022-12-19T07:15:23.435Z,5.00
2022-12-19T07:16:23.501Z,6.00
2022-12-19T07:17:23.450Z,6.00
2022-12-19T07:18:23.404Z,8.00
2022-12-19T07:19:23.385Z,7.00
2022-12-19T07:20:23.400Z,7.00
2022-12-19T07:21:23.370Z,9.00
2022-12-19T07:22:23.358Z,8.00
2022-12-19T07:23:23.355Z,12.00
2022-12-19T07:24:23.334Z,12.00
2022-12-19T07:25:23.326Z,13.00
2022-12-19T07:26:23.319Z,13.00
2022-12-19T07:27:23.313Z,14.00
2022-12-19T07:28:23.304Z,15.00
2022-12-19T07:29:23.309Z,17.00
2022-12-19T07:30:23.279Z,15.00
2022-12-19T07:31:23.289Z,17.00
2022-12-19T07:32:23.274Z,17.00
2022-12-19T07:33:23.244Z,19.00
2022-12-19T07:34:23.238Z,19.00
2022-12-19T07:35:23.237Z,22.00
2022-12-19T07:36:23.221Z,24.00
2022-12-19T07:37:23.227Z,25.00
2022-12-19T07:38:23.203Z,25.00
2022-12-19T07:39:23.187Z,27.00
2022-12-19T07:40:23.175Z,30.00
2022-12-19T07:41:23.156Z,31.00
2022-12-19T07:42:26.022Z,32.00
2022-12-19T07:43:23.742Z,34.00
2022-12-19T07:44:23.170Z,35.00
2022-12-19T07:45:23.123Z,33.00
2022-12-19T07:46:23.122Z,38.00
2022-12-19T07:47:23.089Z,35.00
2022-12-19T07:48:23.112Z,40.00
2022-12-19T07:49:23.483Z,40.00
2022-12-19T07:50:23.077Z,36.00
2022-12-19T07:51:23.067Z,35.00
2022-12-19T07:52:23.057Z,36.00
2022-12-19T07:53:23.038Z,44.00
2022-12-19T07:54:23.030Z,49.00
2022-12-19T07:55:23.427Z,41.00
2022-12-19T07:56:23.066Z,53.00
2022-12-19T07:57:22.993Z,53.00
2022-12-19T07:58:22.990Z,50.00
2022-12-19T07:59:28.948Z,56.00
2022-12-19T08:00:22.990Z,49.00
2022-12-19T08:01:23.080Z,53.00
2022-12-19T08:02:23.072Z,45.00
2022-12-19T08:03:23.408Z,66.00
2022-12-19T08:04:22.925Z,59.00
2022-12-19T08:05:22.914Z,59.00
2022-12-19T08:06:22.904Z,68.00
2022-12-19T08:07:22.902Z,62.00
2022-12-19T08:08:22.890Z,70.00
2022-12-19T08:09:22.881Z,65.00
2022-12-19T08:10:22.887Z,55.00
2022-12-19T08:11:22.852Z,67.00
2022-12-19T08:12:22.848Z,57.00
2022-12-19T08:13:22.830Z,64.00
2022-12-19T08:14:22.833Z,54.00
2022-12-19T08:15:22.827Z,60.00
2022-12-19T08:16:23.086Z,64.00
2022-12-19T08:17:22.835Z,84.00
2022-12-19T08:18:22.789Z,85.00
2022-12-19T08:19:27.324Z,70.00
2022-12-19T08:20:23.130Z,75.00
2022-12-19T08:21:22.751Z,64.00
2022-12-19T08:22:22.743Z,87.00
2022-12-19T08:23:23.053Z,99.00
2022-12-19T08:24:22.732Z,104.00
2022-12-19T08:25:22.720Z,111.00
2022-12-19T08:26:22.703Z,115.00
2022-12-19T08:27:22.694Z,94.00
2022-12-19T08:28:22.699Z,120.00
2022-12-19T08:29:22.676Z,114.00
2022-12-19T08:30:22.668Z,121.00
2022-12-19T08:31:22.713Z,107.00
2022-12-19T08:32:22.659Z,117.00
2022-12-19T08:33:22.624Z,111.00
2022-12-19T08:34:22.631Z,105.00
2022-12-19T08:35:22.944Z,97.00
2022-12-19T08:36:22.604Z,91.00
2022-12-19T08:37:23.029Z,116.00
2022-12-19T08:38:22.577Z,98.00
2022-12-19T08:39:22.591Z,107.00
2022-12-19T08:40:22.628Z,106.00
2022-12-19T08:41:22.542Z,108.00
2022-12-19T08:42:22.633Z,113.00
2022-12-19T08:43:22.530Z,101.00
2022-12-19T08:44:22.531Z,104.00
2022-12-19T08:45:22.508Z,129.00
2022-12-19T08:46:22.590Z,128.00
2022-12-19T08:47:22.864Z,149.00
2022-12-19T08:48:23.002Z,139.00
2022-12-19T08:49:22.465Z,141.00
2022-12-19T08:50:22.464Z,136.00
2022-12-19T08:51:22.450Z,141.00
2022-12-19T08:52:22.448Z,174.00
2022-12-19T08:53:26.243Z,156.00
2022-12-19T08:54:22.429Z,158.00
2022-12-19T08:55:22.409Z,182.00
2022-12-19T08:56:22.401Z,155.00
2022-12-19T08:57:22.382Z,175.00
2022-12-19T08:58:22.376Z,179.00
2022-12-19T08:59:30.645Z,176.00
2022-12-19T09:00:22.381Z,185.00
2022-12-19T09:01:22.451Z,200.00
2022-12-19T09:02:22.659Z,202.00
2022-12-19T09:03:22.532Z,219.00
2022-12-19T09:05:27.769Z,267.00
2022-12-19T09:06:12.183Z,262.00
2022-12-19T09:06:23.170Z,292.00
2022-12-19T09:07:22.297Z,293.00
2022-12-19T09:08:22.288Z,306.00
2022-12-19T09:09:22.276Z,341.00
2022-12-19T09:10:22.269Z,313.00
2022-12-19T09:11:22.245Z,343.00
2022-12-19T09:12:22.243Z,358.00
2022-12-19T09:13:22.222Z,352.00
2022-12-19T09:14:22.223Z,366.00
2022-12-19T09:15:22.210Z,377.00
2022-12-19T09:16:22.259Z,383.00
2022-12-19T09:17:22.187Z,393.00
2022-12-19T09:18:24.262Z,409.00
2022-12-19T09:19:22.164Z,422.00
2022-12-19T09:20:23.624Z,404.00
2022-12-19T09:21:22.148Z,425.00
2022-12-19T09:22:27.687Z,442.00
2022-12-19T09:23:22.131Z,460.00
2022-12-19T09:24:22.121Z,451.00
2022-12-19T09:25:22.108Z,459.00
2022-12-19T09:26:22.121Z,477.00
2022-12-19T09:27:22.088Z,481.00
2022-12-19T09:28:29.187Z,499.00
2022-12-19T09:29:22.502Z,471.00
2022-12-19T09:30:22.263Z,477.00
2022-12-19T09:31:22.088Z,493.00
2022-12-19T09:32:22.034Z,525.00
2022-12-19T09:33:22.033Z,552.00
2022-12-19T09:34:22.120Z,534.00
2022-12-19T09:35:26.949Z,545.00
2022-12-19T09:36:21.999Z,532.00
2022-12-19T09:37:21.985Z,525.00
2022-12-19T09:38:21.969Z,489.00
2022-12-19T09:39:21.984Z,509.00
2022-12-19T09:40:22.065Z,477.00
2022-12-19T09:41:21.946Z,523.00
2022-12-19T09:42:21.947Z,520.00
2022-12-19T09:43:21.919Z,514.00
2022-12-19T09:44:21.918Z,516.00
2022-12-19T09:45:28.175Z,547.00
2022-12-19T09:46:22.011Z,524.00
2022-12-19T09:47:21.891Z,522.00
2022-12-19T09:48:24.623Z,535.00
2022-12-19T09:49:21.861Z,548.00
2022-12-19T09:50:22.373Z,568.00
2022-12-19T09:51:21.849Z,589.00
2022-12-19T09:52:21.834Z,577.00
2022-12-19T09:53:21.846Z,560.00
2022-12-19T09:54:21.827Z,572.00
2022-12-19T09:55:21.805Z,563.00
2022-12-19T09:56:21.798Z,552.00
2022-12-19T09:57:21.778Z,550.00
2022-12-19T09:58:21.790Z,534.00
2022-12-19T09:59:22.251Z,554.00
2022-12-19T10:00:21.918Z,539.00
2022-12-19T10:01:21.880Z,539.00
2022-12-19T10:02:22.001Z,539.00
2022-12-19T10:03:21.761Z,536.00
2022-12-19T10:04:21.712Z,539.00
2022-12-19T10:05:58.427Z,532.00
2022-12-19T10:07:34.296Z,528.00
2022-12-19T10:08:05.445Z,551.00
2022-12-19T10:08:25.209Z,568.00
2022-12-19T10:11:44.309Z,561.00
2022-12-19T10:12:52.311Z,565.00
2022-12-19T10:12:59.817Z,567.00
2022-12-19T10:13:56.433Z,622.00
2022-12-19T10:14:56.489Z,636.00
2022-12-19T10:15:56.289Z,615.00
2022-12-19T10:17:22.500Z,647.00
2022-12-19T10:17:56.266Z,669.00
2022-12-19T10:18:57.219Z,682.00
2022-12-19T10:19:56.240Z,677.00
2022-12-19T10:20:56.232Z,710.00
2022-12-19T10:22:56.230Z,708.00
2022-12-19T10:23:56.290Z,724.00
2022-12-19T10:25:08.727Z,688.00
2022-12-19T10:25:56.369Z,695.00
2022-12-19T10:26:56.168Z,664.00
2022-12-19T10:27:59.427Z,647.00
2022-12-19T10:28:56.182Z,603.00
2022-12-19T10:29:56.308Z,631.00
2022-12-19T10:30:56.198Z,670.00
2022-12-19T10:31:56.188Z,650.00
2022-12-19T10:32:56.121Z,650.00
2022-12-19T10:33:56.127Z,654.00
2022-12-19T10:34:56.749Z,644.00
2022-12-19T10:35:56.111Z,629.00
2022-12-19T10:37:56.072Z,638.00
2022-12-19T10:38:56.049Z,655.00
2022-12-19T10:39:56.275Z,635.00
2022-12-19T10:40:56.018Z,635.00
2022-12-19T10:41:56.090Z,674.00
2022-12-19T10:42:56.008Z,707.00
2022-12-19T10:43:56.013Z,731.00
2022-12-19T10:44:55.998Z,748.00
2022-12-19T10:45:56.043Z,733.00
2022-12-19T10:46:56.024Z,732.00
2022-12-19T10:47:55.963Z,669.00
2022-12-19T10:48:56.199Z,704.00
2022-12-19T10:49:55.961Z,777.00
2022-12-19T10:50:55.937Z,761.00
2022-12-19T10:51:55.957Z,686.00
2022-12-19T10:52:55.960Z,652.00
2022-12-19T10:53:55.934Z,650.00
2022-12-19T10:54:55.891Z,626.00
2022-12-19T10:55:55.872Z,615.00
2022-12-19T10:56:55.874Z,607.00
2022-12-19T10:57:55.872Z,598.00
2022-12-19T10:58:55.868Z,584.00
2022-12-19T10:59:55.913Z,619.00
2022-12-19T11:00:56.477Z,605.00
2022-12-19T11:02:00.826Z,624.00
2022-12-19T11:02:56.003Z,612.00
2022-12-19T11:03:55.868Z,624.00
2022-12-19T11:04:55.848Z,663.00
2022-12-19T11:05:57.621Z,703.00
2022-12-19T11:06:55.810Z,697.00
2022-12-19T11:07:55.752Z,688.00
2022-12-19T11:08:55.752Z,702.00
2022-12-19T11:10:09.295Z,663.00
2022-12-19T11:14:36.530Z,675.00
2022-12-19T11:24:42.771Z,673.00
2022-12-19T11:33:00.282Z,661.00
2022-12-19T11:34:00.165Z,178.00
2022-12-19T11:35:00.186Z,670.00
2022-12-19T11:36:00.141Z,690.00
2022-12-19T11:37:00.122Z,700.00
2022-12-19T11:38:00.133Z,679.00
2022-12-19T11:39:00.107Z,654.00
2022-12-19T11:40:00.166Z,653.00
2022-12-19T11:41:00.141Z,626.00
2022-12-19T11:42:00.123Z,641.00
2022-12-19T11:43:41.943Z,638.00
2022-12-19T11:44:00.080Z,642.00
2022-12-19T11:45:00.091Z,632.00
2022-12-19T11:46:00.070Z,647.00
2022-12-19T11:47:00.033Z,663.00
2022-12-19T11:48:00.021Z,662.00
2022-12-19T11:49:00.008Z,629.00
2022-12-19T11:50:00.000Z,608.00
2022-12-19T11:51:00.033Z,583.00
2022-12-19T11:51:59.988Z,574.00
2022-12-19T11:53:05.058Z,558.00
2022-12-19T11:53:59.961Z,565.00
2022-12-19T11:54:59.947Z,586.00
2022-12-19T11:55:59.935Z,579.00
2022-12-19T11:57:00.166Z,575.00
2022-12-19T11:57:59.921Z,560.00
2022-12-19T11:58:59.943Z,550.00
2022-12-19T12:00:04.671Z,550.00
2022-12-19T12:00:59.908Z,560.00
2022-12-19T12:02:00.540Z,558.00
2022-12-19T12:02:59.945Z,539.00
2022-12-19T12:04:02.230Z,538.00
2022-12-19T12:04:59.867Z,546.00
2022-12-19T12:05:59.936Z,542.00
2022-12-19T12:07:00.289Z,536.00
2022-12-19T12:09:32.036Z,540.00
2022-12-19T12:25:12.153Z,538.00
2022-12-19T12:35:45.386Z,370.00
2022-12-19T12:38:21.970Z,454.00
2022-12-19T12:39:04.760Z,425.00
2022-12-19T12:40:03.986Z,429.00
2022-12-19T12:41:04.416Z,408.00
2022-12-19T12:42:03.978Z,397.00
2022-12-19T12:43:03.947Z,405.00
2022-12-19T12:44:03.939Z,417.00
2022-12-19T12:45:03.917Z,423.00
2022-12-19T12:46:04.401Z,430.00
2022-12-19T12:47:03.945Z,428.00
2022-12-19T12:48:03.888Z,422.00
2022-12-19T12:49:03.891Z,432.00
2022-12-19T12:50:03.874Z,425.00
2022-12-19T12:51:03.857Z,379.00
2022-12-19T12:52:03.887Z,354.00
2022-12-19T12:53:03.854Z,353.00
2022-12-19T12:54:03.844Z,348.00
2022-12-19T12:55:03.821Z,353.00
2022-12-19T12:56:03.881Z,349.00
2022-12-19T12:57:03.853Z,344.00
2022-12-19T12:58:04.686Z,344.00
2022-12-19T12:59:03.805Z,338.00
2022-12-19T13:00:03.774Z,359.00
2022-12-19T13:01:03.802Z,377.00
2022-12-19T13:02:04.005Z,358.00
2022-12-19T13:03:03.919Z,338.00
2022-12-19T13:04:03.726Z,322.00
2022-12-19T13:05:03.713Z,309.00
2022-12-19T13:06:03.756Z,294.00
2022-12-19T13:07:03.719Z,291.00
2022-12-19T13:08:03.722Z,293.00
2022-12-19T13:09:03.691Z,291.00
2022-12-19T13:10:03.670Z,301.00
2022-12-19T13:11:03.732Z,311.00
2022-12-19T13:12:04.048Z,310.00
2022-12-19T13:13:07.986Z,311.00
2022-12-19T13:14:03.641Z,324.00
2022-12-19T13:15:03.630Z,322.00
2022-12-19T13:16:03.604Z,333.00
2022-12-19T13:17:03.684Z,348.00
2022-12-19T13:18:03.948Z,354.00
2022-12-19T13:19:03.613Z,367.00
2022-12-19T13:20:03.596Z,372.00
2022-12-19T13:21:03.578Z,380.00
2022-12-19T13:22:03.611Z,403.00
2022-12-19T13:23:03.530Z,408.00
2022-12-19T13:24:03.527Z,418.00
2022-12-19T13:25:03.512Z,415.00
2022-12-19T13:26:03.533Z,399.00
2022-12-19T13:27:03.508Z,404.00
2022-12-19T13:28:03.952Z,415.00
2022-12-19T13:29:03.488Z,433.00
2022-12-19T13:30:03.477Z,413.00
2022-12-19T13:31:20.372Z,394.00
2022-12-19T13:32:03.605Z,373.00
2022-12-19T13:33:03.459Z,358.00
2022-12-19T13:34:03.427Z,352.00
2022-12-19T13:35:53.225Z,367.00
2022-12-19T13:40:00.874Z,399.00
2022-12-19T13:40:12.493Z,479.00
2022-12-19T13:40:49.330Z,360.00
2022-12-19T13:41:49.319Z,342.00
2022-12-19T13:42:49.309Z,339.00
2022-12-19T13:43:49.292Z,341.00
2022-12-19T13:44:49.316Z,362.00
2022-12-19T13:45:49.308Z,398.00
2022-12-19T13:46:49.295Z,439.00
2022-12-19T13:47:49.264Z,474.00
2022-12-19T13:48:49.249Z,472.00
2022-12-19T13:49:49.231Z,463.00
2022-12-19T13:50:49.540Z,460.00
2022-12-19T13:51:49.561Z,433.00